Time;durP1;ratioP1;P1;durP2;ratioP2;P2;SDS_P1;SDS_P2;PMS_P1;PMS_P2;Temp;Humidity;BMP_temperature;BMP_pressure;BME280_temperature;BME280_humidity;BME280_pressure;Samples;Min_cycle;Max_cycle;Signal;HPM_P1;HPM_P2
2022/10/31 00:00:56;;;;;;;19.17;12.57;;;13.00;99.90;;;;;;4905927;29;20485;-62
2022/10/31 00:03:22;;;;;;;19.98;13.05;;;13.10;99.90;;;;;;4905140;29;20055;-62
2022/10/31 00:05:49;;;;;;;21.35;13.20;;;12.90;99.90;;;;;;4906383;29;20117;-62
2022/10/31 00:08:16;;;;;;;25.08;14.10;;;12.90;99.90;;;;;;4905076;29;20048;-58
2022/10/31 00:10:44;;;;;;;24.27;13.15;;;13.00;99.90;;;;;;4905212;29;20059;-62
2022/10/31 00:13:10;;;;;;;24.42;13.55;;;13.00;99.90;;;;;;4905071;29;20160;-64
2022/10/31 00:15:37;;;;;;;19.38;13.15;;;12.70;99.90;;;;;;4888529;29;20587;-62
2022/10/31 00:18:04;;;;;;;26.35;14.35;;;12.80;99.90;;;;;;4905738;29;20052;-62
2022/10/31 00:20:31;;;;;;;23.98;13.57;;;12.70;99.90;;;;;;4904731;29;20075;-62
2022/10/31 00:23:00;;;;;;;22.65;14.40;;;12.60;99.90;;;;;;4905920;29;20057;-62
2022/10/31 00:25:28;;;;;;;22.77;12.98;;;12.70;99.90;;;;;;4904667;29;20087;-60
2022/10/31 00:27:54;;;;;;;24.40;14.95;;;12.80;99.90;;;;;;4905861;29;20072;-62
2022/10/31 00:30:19;;;;;;;22.42;14.43;;;12.80;99.90;;;;;;4888166;29;20090;-63
2022/10/31 00:32:45;;;;;;;26.90;15.07;;;12.60;99.90;;;;;;4905105;29;20049;-60
2022/10/31 00:35:11;;;;;;;24.33;14.23;;;12.60;99.90;;;;;;4905301;29;20055;-62
2022/10/31 00:37:37;;;;;;;26.25;14.43;;;12.60;99.90;;;;;;4887686;29;20048;-62
2022/10/31 00:40:03;;;;;;;23.85;15.00;;;12.40;99.90;;;;;;4905528;29;20056;-62
2022/10/31 00:42:28;;;;;;;29.55;15.55;;;12.70;99.90;;;;;;4904074;29;20105;-62
2022/10/31 00:44:54;;;;;;;28.17;14.73;;;12.60;99.90;;;;;;4905527;29;20057;-62
2022/10/31 00:47:19;;;;;;;22.55;14.43;;;12.50;99.90;;;;;;4904749;29;20045;-62
2022/10/31 00:49:45;;;;;;;21.83;14.02;;;12.40;99.90;;;;;;4905050;29;20040;-62
2022/10/31 00:52:11;;;;;;;24.17;14.50;;;12.30;99.90;;;;;;4905007;29;20051;-62
2022/10/31 00:54:36;;;;;;;23.58;13.90;;;12.50;99.90;;;;;;4904210;29;20059;-62
2022/10/31 00:57:02;;;;;;;26.30;15.15;;;12.30;99.90;;;;;;4905373;29;20074;-62
2022/10/31 00:59:28;;;;;;;27.20;15.05;;;12.40;99.90;;;;;;4904091;29;20041;-62
2022/10/31 01:01:54;;;;;;;27.50;15.05;;;12.30;99.90;;;;;;4905341;29;20056;-62
2022/10/31 01:04:19;;;;;;;26.92;14.85;;;12.40;99.90;;;;;;4903860;29;20055;-61
2022/10/31 01:06:45;;;;;;;23.90;14.75;;;12.30;99.90;;;;;;4904943;29;20052;-62
2022/10/31 01:09:10;;;;;;;27.90;15.60;;;12.40;99.90;;;;;;4904835;29;20413;-62
2022/10/31 01:11:36;;;;;;;27.52;15.77;;;12.30;99.90;;;;;;4903681;29;20501;-62
2022/10/31 01:14:02;;;;;;;23.90;15.32;;;12.20;99.90;;;;;;4904744;29;20096;-62
2022/10/31 01:16:29;;;;;;;24.08;15.73;;;12.50;99.90;;;;;;4903383;29;20087;-62
2022/10/31 01:18:55;;;;;;;26.00;16.95;;;12.30;99.90;;;;;;4905210;29;20060;-62
2022/10/31 01:21:24;;;;;;;23.98;15.70;;;12.20;99.90;;;;;;4903488;29;20072;-62
2022/10/31 01:23:51;;;;;;;26.48;17.42;;;12.40;99.90;;;;;;4904638;29;20056;-62
2022/10/31 01:26:19;;;;;;;25.13;16.45;;;12.40;99.90;;;;;;4904491;29;20069;-62
2022/10/31 01:28:50;;;;;;;24.08;16.58;;;12.20;99.90;;;;;;4903786;29;20036;-62
2022/10/31 01:31:17;;;;;;;30.65;17.35;;;12.30;99.90;;;;;;4904509;29;20048;-62
2022/10/31 01:33:43;;;;;;;26.02;17.58;;;12.10;99.90;;;;;;4903318;29;20041;-62
2022/10/31 01:36:36;;;;;;;29.02;17.83;;;12.00;99.90;;;;;;4904662;29;20121;-62
2022/10/31 01:39:05;;;;;;;28.05;17.42;;;12.20;99.90;;;;;;4900917;29;20406;-62
2022/10/31 01:41:34;;;;;;;27.17;17.45;;;12.20;99.90;;;;;;4903646;29;20785;-62
2022/10/31 01:44:19;;;;;;;29.75;18.70;;;12.20;99.90;;;;;;4904284;29;20048;-62
2022/10/31 01:46:59;;;;;;;23.38;16.45;;;12.10;99.90;;;;;;4902620;29;20112;-61
2022/10/31 01:49:42;;;;;;;24.25;17.52;;;12.20;99.90;;;;;;4904002;29;20048;-61
2022/10/31 01:52:26;;;;;;;24.23;16.63;;;12.20;99.90;;;;;;4887055;29;20528;-61
2022/10/31 01:55:11;;;;;;;29.65;17.42;;;12.00;99.90;;;;;;4903071;29;20086;-62
2022/10/31 01:57:40;;;;;;;27.95;17.48;;;11.90;99.90;;;;;;4904592;29;20057;-61
2022/10/31 02:00:08;;;;;;;27.77;17.42;;;12.00;99.90;;;;;;4903489;29;20060;-62
2022/10/31 02:02:34;;;;;;;27.20;18.48;;;12.00;99.90;;;;;;4903723;29;20052;-63
2022/10/31 02:05:05;;;;;;;27.10;17.60;;;11.90;99.90;;;;;;4903950;29;20064;-61
2022/10/31 02:07:38;;;;;;;26.23;17.02;;;12.00;99.90;;;;;;4903001;29;20367;-62
2022/10/31 02:10:04;;;;;;;28.10;18.02;;;12.00;99.90;;;;;;4887508;29;20045;-62
2022/10/31 02:12:32;;;;;;;27.20;17.65;;;12.10;99.90;;;;;;4902942;29;20063;-61
2022/10/31 02:14:59;;;;;;;26.80;17.67;;;12.00;99.90;;;;;;4904152;29;20071;-62
2022/10/31 02:17:25;;;;;;;26.60;17.20;;;12.20;99.90;;;;;;4903473;29;20049;-61
2022/10/31 02:20:20;;;;;;;25.38;17.75;;;12.10;99.90;;;;;;4903266;29;20049;-61
2022/10/31 02:23:11;;;;;;;27.35;17.45;;;12.00;99.90;;;;;;4901968;29;20528;-62
2022/10/31 02:25:52;;;;;;;28.55;18.38;;;12.10;99.90;;;;;;4902941;29;20052;-62
2022/10/31 02:28:30;;;;;;;28.95;17.63;;;11.90;99.90;;;;;;4903516;29;20104;-61
2022/10/31 02:31:16;;;;;;;28.13;17.08;;;12.00;99.90;;;;;;4904068;29;20391;-61
2022/10/31 02:33:49;;;;;;;23.02;17.42;;;11.80;99.90;;;;;;4904842;29;20052;-62
2022/10/31 02:36:24;;;;;;;25.88;17.08;;;11.80;99.90;;;;;;4890785;29;20052;-62
2022/10/31 02:38:56;;;;;;;25.55;17.80;;;11.90;99.90;;;;;;4907195;29;20055;-61
2022/10/31 02:41:40;;;;;;;26.20;18.33;;;11.90;99.90;;;;;;4906440;29;20080;-62
2022/10/31 02:44:18;;;;;;;26.80;17.23;;;11.90;99.90;;;;;;4907186;29;20059;-63
2022/10/31 02:46:57;;;;;;;27.75;17.92;;;11.80;99.90;;;;;;4906312;29;20060;-62
2022/10/31 02:49:46;;;;;;;22.10;16.25;;;11.80;99.90;;;;;;4890414;29;20060;-62
2022/10/31 02:52:23;;;;;;;27.88;16.13;;;12.00;99.90;;;;;;4907110;29;20109;-61
2022/10/31 02:54:49;;;;;;;23.65;17.52;;;11.90;99.90;;;;;;4906311;29;20084;-62
2022/10/31 02:57:19;;;;;;;25.67;16.67;;;11.80;99.90;;;;;;4907398;29;20052;-62
2022/10/31 02:59:48;;;;;;;27.30;16.95;;;11.80;99.90;;;;;;4906341;29;20045;-62
2022/10/31 03:02:36;;;;;;;24.48;16.90;;;11.90;99.90;;;;;;4907277;29;20104;-60
2022/10/31 03:05:21;;;;;;;29.05;18.27;;;11.90;99.90;;;;;;4906862;29;20128;-62
2022/10/31 03:08:15;;;;;;;26.08;17.30;;;11.80;99.90;;;;;;4905920;29;20071;-62
2022/10/31 03:10:58;;;;;;;26.90;17.20;;;11.60;99.90;;;;;;4890581;29;20116;-59
2022/10/31 03:13:46;;;;;;;25.90;17.17;;;11.60;99.90;;;;;;4906378;29;20131;-62
2022/10/31 03:16:25;;;;;;;27.42;17.55;;;11.70;99.90;;;;;;4905925;29;20121;-62
2022/10/31 03:19:09;;;;;;;26.70;17.67;;;11.70;99.90;;;;;;4907402;29;20093;-62
2022/10/31 03:21:49;;;;;;;29.20;19.15;;;11.70;99.90;;;;;;4906051;29;20056;-61
2022/10/31 03:24:15;;;;;;;27.63;18.35;;;11.70;99.90;;;;;;4905890;29;20080;-61
2022/10/31 03:26:51;;;;;;;29.73;19.00;;;11.60;99.90;;;;;;4889779;29;20475;-62
2022/10/31 03:29:21;;;;;;;29.60;18.15;;;11.40;99.90;;;;;;4905356;29;20536;-62
2022/10/31 03:31:58;;;;;;;25.92;17.33;;;11.50;99.90;;;;;;4907112;29;20044;-62
2022/10/31 03:34:23;;;;;;;27.88;18.30;;;11.40;99.90;;;;;;4905884;29;20048;-62
2022/10/31 03:36:52;;;;;;;27.83;17.55;;;11.50;99.90;;;;;;4906059;29;20108;-62
2022/10/31 03:39:20;;;;;;;27.27;18.73;;;11.50;99.90;;;;;;4906175;29;20048;-62
2022/10/31 03:42:18;;;;;;;25.15;16.52;;;11.40;99.90;;;;;;4905449;29;20045;-61
2022/10/31 03:45:12;;;;;;;25.52;16.48;;;11.40;99.90;;;;;;4890078;29;20049;-62
2022/10/31 03:47:39;;;;;;;27.25;16.45;;;11.40;99.90;;;;;;4895782;29;20052;-62
2022/10/31 03:50:07;;;;;;;25.60;18.17;;;11.30;99.90;;;;;;4909834;29;20574;-62
2022/10/31 03:52:48;;;;;;;26.25;18.00;;;11.40;99.90;;;;;;4917718;29;20059;-62
2022/10/31 03:55:28;;;;;;;26.48;17.00;;;11.40;99.90;;;;;;4907878;29;20076;-62
2022/10/31 03:58:05;;;;;;;26.23;17.20;;;11.20;99.90;;;;;;4909272;29;20062;-61
2022/10/31 04:00:33;;;;;;;25.23;16.85;;;11.20;99.90;;;;;;4907439;29;20055;-62
2022/10/31 04:03:10;;;;;;;24.92;16.98;;;11.30;99.90;;;;;;4923751;29;20583;-62
2022/10/31 04:05:36;;;;;;;22.55;16.75;;;11.10;99.90;;;;;;4907837;29;20056;-62
2022/10/31 04:08:08;;;;;;;24.98;16.38;;;11.10;99.90;;;;;;4907836;29;20638;-62
2022/10/31 04:10:36;;;;;;;26.45;16.80;;;11.30;99.90;;;;;;4905876;29;20048;-61
2022/10/31 04:13:09;;;;;;;22.80;16.15;;;11.20;99.90;;;;;;4888067;29;20464;-62
2022/10/31 04:15:38;;;;;;;23.83;16.80;;;11.00;99.90;;;;;;4884874;29;20064;-62
2022/10/31 04:18:05;;;;;;;25.40;16.13;;;11.00;99.90;;;;;;4887152;29;20049;-61
2022/10/31 04:20:33;;;;;;;25.13;17.00;;;11.00;99.90;;;;;;4885823;29;20516;-62
2022/10/31 04:23:00;;;;;;;27.25;16.50;;;11.00;99.90;;;;;;4887039;29;20056;-62
2022/10/31 04:25:25;;;;;;;22.10;15.27;;;11.10;99.90;;;;;;4904135;29;20055;-61
2022/10/31 04:27:51;;;;;;;23.83;16.77;;;11.10;99.90;;;;;;4905752;29;20053;-62
2022/10/31 04:30:16;;;;;;;25.25;16.00;;;11.10;99.90;;;;;;4905097;29;20080;-62
2022/10/31 04:32:42;;;;;;;24.70;17.23;;;11.00;99.90;;;;;;4903388;29;20052;-62
2022/10/31 04:35:08;;;;;;;24.38;16.85;;;11.00;99.90;;;;;;4905210;29;20056;-62
2022/10/31 04:37:33;;;;;;;24.65;15.77;;;11.00;99.90;;;;;;4904462;29;20056;-62
2022/10/31 04:39:59;;;;;;;24.80;16.42;;;11.00;99.90;;;;;;4905312;29;20041;-62
2022/10/31 04:42:25;;;;;;;27.48;17.20;;;10.90;99.90;;;;;;4902758;29;20052;-62
2022/10/31 04:44:50;;;;;;;25.13;16.33;;;11.10;99.90;;;;;;4905696;29;20051;-62
2022/10/31 04:47:16;;;;;;;25.35;16.30;;;11.10;99.90;;;;;;4904394;29;20036;-61
2022/10/31 04:49:41;;;;;;;25.42;16.20;;;10.90;99.90;;;;;;4903391;29;20048;-61
2022/10/31 04:52:07;;;;;;;22.30;16.58;;;11.10;99.90;;;;;;4904948;29;20052;-62
2022/10/31 04:54:33;;;;;;;24.05;16.00;;;11.00;99.90;;;;;;4904178;29;20056;-62
2022/10/31 04:56:59;;;;;;;21.98;14.73;;;11.00;99.90;;;;;;4904633;29;20190;-62
2022/10/31 04:59:24;;;;;;;24.90;15.82;;;10.90;99.90;;;;;;4885359;29;20049;-62
2022/10/31 05:01:50;;;;;;;24.63;15.40;;;11.00;99.90;;;;;;4886682;29;20052;-62
2022/10/31 05:04:16;;;;;;;23.48;15.63;;;10.90;99.90;;;;;;4883971;29;20049;-62
2022/10/31 05:06:41;;;;;;;23.58;15.05;;;10.80;99.90;;;;;;4885856;29;20041;-62
2022/10/31 05:09:07;;;;;;;22.02;14.80;;;10.90;99.90;;;;;;4885734;29;20128;-62
2022/10/31 05:11:32;;;;;;;21.48;15.13;;;10.90;99.90;;;;;;4884917;29;20409;-62
2022/10/31 05:13:58;;;;;;;24.77;14.82;;;10.90;99.90;;;;;;4889569;29;20056;-60
2022/10/31 05:16:24;;;;;;;23.98;14.95;;;10.90;99.90;;;;;;4903435;29;20056;-62
2022/10/31 05:18:49;;;;;;;25.08;15.65;;;10.80;99.90;;;;;;4904896;29;20064;-62
2022/10/31 05:21:15;;;;;;;22.40;14.18;;;10.80;99.90;;;;;;4903798;29;20052;-62
2022/10/31 05:23:40;;;;;;;21.55;15.27;;;10.80;99.90;;;;;;4904651;29;20049;-61
2022/10/31 05:26:06;;;;;;;22.63;15.65;;;10.70;99.90;;;;;;4903961;29;20051;-62
2022/10/31 05:28:32;;;;;;;22.10;14.50;;;10.80;99.90;;;;;;4903630;29;20067;-62
2022/10/31 05:30:57;;;;;;;23.63;15.13;;;10.70;99.90;;;;;;4904356;29;20045;-62
2022/10/31 05:33:23;;;;;;;22.05;15.05;;;10.90;99.90;;;;;;4903252;29;20052;-62
2022/10/31 05:35:49;;;;;;;20.33;14.57;;;10.90;99.90;;;;;;4904629;29;20045;-62
2022/10/31 05:38:14;;;;;;;22.88;14.45;;;10.80;99.90;;;;;;4886471;29;20048;-60
2022/10/31 05:40:40;;;;;;;25.52;14.93;;;10.80;99.90;;;;;;4904249;29;20052;-62
2022/10/31 05:43:05;;;;;;;21.80;15.27;;;10.80;99.90;;;;;;4886811;29;20068;-62
2022/10/31 05:45:31;;;;;;;23.13;15.45;;;10.80;99.90;;;;;;4903552;29;20052;-62
2022/10/31 05:48:01;;;;;;;23.90;15.20;;;10.70;99.90;;;;;;4904020;29;20091;-62
2022/10/31 05:50:29;;;;;;;25.52;15.77;;;10.80;99.90;;;;;;4903317;29;20128;-62
2022/10/31 05:53:04;;;;;;;21.92;15.57;;;11.00;99.90;;;;;;4904205;29;20108;-62
2022/10/31 05:55:30;;;;;;;22.63;15.88;;;10.70;99.90;;;;;;4903565;29;20043;-62
2022/10/31 05:57:56;;;;;;;20.77;15.38;;;10.90;99.90;;;;;;4892848;29;20051;-62
2022/10/31 06:00:24;;;;;;;22.23;15.30;;;10.70;99.90;;;;;;4922896;29;20152;-62
2022/10/31 06:02:56;;;;;;;26.95;15.77;;;10.50;99.90;;;;;;4904819;29;20055;-62
2022/10/31 06:05:22;;;;;;;28.42;17.15;;;10.70;99.90;;;;;;4923327;29;20125;-62
2022/10/31 06:07:48;;;;;;;25.17;16.38;;;10.60;99.90;;;;;;4922758;29;20488;-62
2022/10/31 06:10:14;;;;;;;22.90;15.48;;;10.50;99.90;;;;;;4927300;29;20119;-62
2022/10/31 06:12:40;;;;;;;24.83;16.92;;;10.70;99.90;;;;;;4925488;29;20499;-62
2022/10/31 06:15:07;;;;;;;20.98;15.18;;;10.70;99.90;;;;;;4926572;29;20072;-62
2022/10/31 06:17:36;;;;;;;21.55;15.13;;;10.70;99.90;;;;;;4926550;29;20059;-62
2022/10/31 06:20:03;;;;;;;22.63;15.43;;;10.80;99.90;;;;;;4925808;29;20048;-61
2022/10/31 06:22:28;;;;;;;24.25;15.02;;;10.70;99.90;;;;;;4926840;29;20107;-60
2022/10/31 06:24:54;;;;;;;22.27;16.10;;;10.60;99.90;;;;;;4925613;29;20036;-62
2022/10/31 06:27:20;;;;;;;23.33;15.80;;;10.60;99.90;;;;;;4927058;29;20063;-62
2022/10/31 06:29:45;;;;;;;24.33;16.50;;;10.80;99.90;;;;;;4908162;29;20096;-62
2022/10/31 06:32:12;;;;;;;24.95;15.60;;;10.70;99.90;;;;;;4926400;29;20044;-61
2022/10/31 06:34:39;;;;;;;23.80;16.13;;;10.70;99.90;;;;;;4925967;29;20044;-62
2022/10/31 06:37:07;;;;;;;22.75;16.27;;;10.70;99.90;;;;;;4925546;29;20044;-62
2022/10/31 06:39:33;;;;;;;21.90;15.07;;;10.70;99.90;;;;;;4926180;29;20052;-62
2022/10/31 06:41:58;;;;;;;24.00;16.42;;;10.70;99.90;;;;;;4924612;29;20114;-62
2022/10/31 06:44:24;;;;;;;23.27;16.20;;;11.00;99.90;;;;;;4908955;29;20103;-61
2022/10/31 06:46:49;;;;;;;25.65;15.32;;;10.80;99.90;;;;;;4908049;29;20079;-62
2022/10/31 06:49:15;;;;;;;21.98;15.75;;;10.70;99.90;;;;;;4925779;29;20048;-62
2022/10/31 06:51:41;;;;;;;19.30;15.13;;;10.60;99.90;;;;;;4925365;29;20045;-62
2022/10/31 06:54:07;;;;;;;18.58;14.63;;;10.70;99.90;;;;;;4924707;29;20054;-62
2022/10/31 06:56:32;;;;;;;24.20;15.95;;;10.60;99.90;;;;;;4925736;29;20410;-61
2022/10/31 06:58:58;;;;;;;22.88;16.25;;;10.70;99.90;;;;;;4910806;29;20112;-60
2022/10/31 07:01:24;;;;;;;24.17;14.95;;;10.80;99.90;;;;;;4890439;29;20626;-61
2022/10/31 07:03:49;;;;;;;21.77;15.77;;;10.80;99.90;;;;;;4905622;29;20180;-61
2022/10/31 07:06:15;;;;;;;22.73;15.02;;;10.80;99.90;;;;;;4907099;29;20053;-61
2022/10/31 07:08:41;;;;;;;21.23;14.85;;;10.80;99.90;;;;;;4907932;29;20056;-61
2022/10/31 07:11:06;;;;;;;21.80;14.38;;;10.70;99.90;;;;;;4920549;29;20083;-61
2022/10/31 07:13:32;;;;;;;20.58;14.30;;;10.70;99.90;;;;;;4922194;29;20048;-61
2022/10/31 07:16:03;;;;;;;23.55;15.10;;;10.70;99.90;;;;;;4920761;29;20193;-61
2022/10/31 07:18:29;;;;;;;22.98;15.07;;;10.70;99.90;;;;;;4921941;29;20119;-62
2022/10/31 07:20:55;;;;;;;19.88;14.35;;;10.80;99.90;;;;;;4920831;29;20045;-61
2022/10/31 07:23:21;;;;;;;22.80;16.00;;;10.80;99.90;;;;;;4922179;29;20048;-61
2022/10/31 07:25:47;;;;;;;19.70;14.93;;;10.80;99.90;;;;;;4921646;29;20048;-59
2022/10/31 07:28:13;;;;;;;19.83;14.23;;;10.80;99.90;;;;;;4920586;29;20052;-61
2022/10/31 07:30:39;;;;;;;19.98;15.13;;;10.80;99.90;;;;;;4921296;29;20047;-61
2022/10/31 07:33:05;;;;;;;21.55;14.70;;;11.10;99.90;;;;;;4919837;29;20055;-60
2022/10/31 07:35:32;;;;;;;21.50;14.70;;;11.00;99.90;;;;;;4922130;29;20040;-62
2022/10/31 07:37:58;;;;;;;22.42;15.27;;;11.10;99.90;;;;;;4921171;29;20135;-61
2022/10/31 07:40:24;;;;;;;23.55;15.80;;;11.10;99.90;;;;;;4922345;29;20123;-62
2022/10/31 07:42:51;;;;;;;19.90;14.45;;;11.20;99.90;;;;;;4920915;29;20080;-61
2022/10/31 07:45:20;;;;;;;19.50;13.77;;;11.20;99.90;;;;;;4920963;29;20064;-61
2022/10/31 07:47:53;;;;;;;19.08;14.15;;;11.30;99.90;;;;;;4921581;29;20150;-61
2022/10/31 07:50:27;;;;;;;22.90;14.50;;;11.20;99.90;;;;;;4920608;29;20056;-61
2022/10/31 07:53:03;;;;;;;20.98;14.05;;;11.30;99.90;;;;;;4922017;29;20056;-62
2022/10/31 07:55:30;;;;;;;21.25;14.48;;;11.40;99.90;;;;;;4920810;29;20061;-61
2022/10/31 07:58:16;;;;;;;23.60;15.38;;;11.30;99.90;;;;;;4920906;29;20104;-61
2022/10/31 08:00:44;;;;;;;22.00;15.45;;;11.40;99.90;;;;;;4921136;29;20051;-61
2022/10/31 08:03:12;;;;;;;20.60;14.07;;;11.30;99.90;;;;;;4902708;29;20079;-61
2022/10/31 08:05:38;;;;;;;20.60;14.90;;;11.50;99.90;;;;;;4921757;29;20055;-61
2022/10/31 08:08:05;;;;;;;21.90;15.45;;;11.50;99.90;;;;;;4903514;29;20099;-61
2022/10/31 08:10:31;;;;;;;20.85;14.90;;;11.60;99.90;;;;;;4920839;29;20136;-60
2022/10/31 08:12:57;;;;;;;23.73;15.18;;;11.50;99.90;;;;;;4920357;29;20067;-62
2022/10/31 08:15:23;;;;;;;24.58;16.50;;;11.50;99.90;;;;;;4919794;29;20169;-61
2022/10/31 08:17:49;;;;;;;26.15;17.65;;;11.70;99.90;;;;;;4920157;29;20044;-61
2022/10/31 08:20:15;;;;;;;30.77;21.92;;;11.60;99.90;;;;;;4919144;29;20060;-62
2022/10/31 08:22:40;;;;;;;25.77;18.10;;;11.50;99.90;;;;;;4921168;29;20048;-61
2022/10/31 08:25:07;;;;;;;23.35;16.80;;;11.50;99.90;;;;;;4919876;29;20079;-59
2022/10/31 08:27:33;;;;;;;25.95;17.23;;;11.50;99.90;;;;;;4903861;29;20285;-62
2022/10/31 08:29:58;;;;;;;22.90;16.55;;;11.50;99.90;;;;;;4902733;29;20079;-62
2022/10/31 08:32:25;;;;;;;24.65;17.48;;;11.20;99.90;;;;;;4902703;29;20456;-61
2022/10/31 08:34:50;;;;;;;28.08;16.83;;;11.50;99.90;;;;;;4920314;29;20048;-61
2022/10/31 08:37:19;;;;;;;22.15;15.95;;;11.60;99.90;;;;;;4920025;29;20055;-62
2022/10/31 08:39:46;;;;;;;23.90;16.85;;;11.50;99.90;;;;;;4920999;29;20052;-62
2022/10/31 08:42:12;;;;;;;24.02;16.67;;;11.50;99.90;;;;;;4919563;29;20044;-62
2022/10/31 08:44:38;;;;;;;23.50;17.08;;;11.60;99.90;;;;;;4920207;29;20048;-61
2022/10/31 08:47:04;;;;;;;22.95;17.70;;;11.60;99.90;;;;;;4902991;29;20088;-61
2022/10/31 08:49:29;;;;;;;24.80;17.42;;;11.60;99.90;;;;;;4920173;29;20065;-61
2022/10/31 08:51:55;;;;;;;23.50;16.63;;;11.60;99.90;;;;;;4920436;29;20092;-61
2022/10/31 08:54:21;;;;;;;24.23;17.48;;;11.80;99.90;;;;;;4899934;29;20084;-61
2022/10/31 08:56:46;;;;;;;23.67;16.70;;;11.80;99.90;;;;;;4917989;29;20063;-61
2022/10/31 08:59:12;;;;;;;26.58;17.65;;;11.80;99.90;;;;;;4903180;29;20048;-61
2022/10/31 09:01:38;;;;;;;21.50;16.33;;;11.70;99.90;;;;;;4901897;29;20070;-61
2022/10/31 09:04:03;;;;;;;22.88;16.73;;;11.90;99.90;;;;;;4900485;29;20112;-61
2022/10/31 09:06:32;;;;;;;21.92;17.58;;;11.80;99.90;;;;;;4910199;29;20149;-61
2022/10/31 09:08:57;;;;;;;24.55;18.23;;;11.90;99.90;;;;;;4901733;29;20062;-60
2022/10/31 09:11:23;;;;;;;22.13;17.25;;;12.00;99.90;;;;;;4918679;29;20064;-61
2022/10/31 09:13:49;;;;;;;24.52;18.58;;;11.90;99.90;;;;;;4915639;29;20052;-61
2022/10/31 09:16:14;;;;;;;27.42;17.70;;;11.90;99.90;;;;;;4908029;29;20071;-61
2022/10/31 09:18:40;;;;;;;26.10;17.95;;;11.90;99.90;;;;;;4893929;29;20122;-61
2022/10/31 09:21:05;;;;;;;23.30;16.02;;;11.90;99.90;;;;;;4914958;29;20051;-61
2022/10/31 09:23:31;;;;;;;23.85;16.30;;;12.10;99.90;;;;;;4920274;29;20083;-61
2022/10/31 09:25:59;;;;;;;23.48;17.05;;;12.10;99.90;;;;;;4919828;29;20091;-61
2022/10/31 09:28:25;;;;;;;25.13;17.08;;;12.40;99.90;;;;;;4918928;29;20044;-62
2022/10/31 09:30:52;;;;;;;28.92;17.52;;;12.40;99.90;;;;;;4919482;29;20094;-62
2022/10/31 09:33:19;;;;;;;23.42;17.13;;;12.50;99.90;;;;;;4917593;29;20044;-61
2022/10/31 09:35:44;;;;;;;26.73;17.88;;;12.40;99.90;;;;;;4902546;29;20048;-62
2022/10/31 09:38:16;;;;;;;24.88;16.33;;;12.70;99.90;;;;;;4918418;29;20040;-62
2022/10/31 09:40:43;;;;;;;24.65;18.10;;;12.80;99.90;;;;;;4919469;29;20040;-61
2022/10/31 09:43:14;;;;;;;22.30;15.32;;;12.70;99.90;;;;;;4918635;29;20092;-61
2022/10/31 09:46:21;;;;;;;22.17;14.88;;;12.90;99.90;;;;;;4918424;29;20060;-62
2022/10/31 09:49:14;;;;;;;24.55;15.93;;;13.00;99.90;;;;;;4919322;29;20060;-61
2022/10/31 09:51:44;;;;;;;22.10;14.00;;;13.20;99.90;;;;;;4919020;29;20048;-62
2022/10/31 09:54:39;;;;;;;21.70;14.23;;;13.00;99.90;;;;;;4918259;29;20568;-62
2022/10/31 09:57:10;;;;;;;21.38;13.65;;;13.30;99.90;;;;;;4919556;29;20083;-62
2022/10/31 09:59:40;;;;;;;19.20;12.75;;;13.30;99.90;;;;;;4898109;29;20054;-62
2022/10/31 10:02:10;;;;;;;22.83;14.23;;;13.40;99.90;;;;;;4900371;29;20059;-62
2022/10/31 10:04:53;;;;;;;19.38;13.90;;;13.50;99.90;;;;;;4899992;29;20049;-62
2022/10/31 10:07:46;;;;;;;19.60;12.38;;;13.40;99.90;;;;;;4899716;29;20060;-61
2022/10/31 10:10:27;;;;;;;21.85;14.30;;;13.40;99.90;;;;;;4899022;29;20064;-61
2022/10/31 10:13:11;;;;;;;20.90;12.95;;;13.40;99.90;;;;;;4899064;29;20052;-61
2022/10/31 10:16:04;;;;;;;51.05;30.38;;;13.30;99.90;;;;;;4901705;29;20420;-61
2022/10/31 10:18:29;;;;;;;21.77;14.60;;;13.40;99.90;;;;;;4903650;29;20052;-60
2022/10/31 10:21:20;;;;;;;27.55;19.08;;;13.70;99.90;;;;;;4902543;29;20048;-60
2022/10/31 10:23:54;;;;;;;26.65;18.55;;;13.50;99.90;;;;;;4909960;29;20055;-61
2022/10/31 10:26:22;;;;;;;20.33;15.05;;;13.60;99.90;;;;;;4910323;29;20044;-61
2022/10/31 10:29:03;;;;;;;19.83;14.43;;;13.70;99.90;;;;;;4908135;29;20040;-61
2022/10/31 10:31:34;;;;;;;20.20;13.75;;;14.10;99.90;;;;;;4903274;29;20445;-60
2022/10/31 10:34:22;;;;;;;20.27;13.70;;;13.90;99.90;;;;;;4908843;29;20045;-61
2022/10/31 10:37:00;;;;;;;19.15;13.43;;;13.90;99.90;;;;;;4917868;29;20044;-61
2022/10/31 10:39:32;;;;;;;20.48;13.82;;;13.90;99.90;;;;;;4920021;29;20088;-61
2022/10/31 10:47:42;;;;;;;17.60;12.20;;;14.30;99.90;;;;;;4921311;29;20167;-60
2022/10/31 10:50:17;;;;;;;21.20;14.27;;;14.30;99.90;;;;;;4901247;29;20040;-59
2022/10/31 10:53:31;;;;;;;21.05;14.63;;;14.40;99.90;;;;;;4920186;29;20076;-60
2022/10/31 10:56:02;;;;;;;22.35;14.75;;;14.30;99.90;;;;;;4925058;29;20044;-59
2022/10/31 10:58:28;;;;;;;18.30;12.85;;;14.60;99.90;;;;;;4922725;29;20483;-59
2022/10/31 11:00:54;;;;;;;34.63;21.42;;;14.60;99.90;;;;;;4924666;29;20036;-59
2022/10/31 11:03:20;;;;;;;44.50;29.80;;;14.60;99.90;;;;;;4923726;29;20068;-59
2022/10/31 11:06:01;;;;;;;28.70;21.13;;;14.70;99.90;;;;;;4925942;29;20157;-59
2022/10/31 11:08:33;;;;;;;19.92;13.82;;;14.70;99.90;;;;;;4923602;29;20059;-58
2022/10/31 11:11:02;;;;;;;20.85;12.57;;;14.50;99.90;;;;;;4922585;29;20131;-59
2022/10/31 11:13:29;;;;;;;18.17;12.65;;;14.80;99.90;;;;;;4924219;29;20063;-59
2022/10/31 11:16:04;;;;;;;16.98;11.45;;;14.80;99.90;;;;;;4924375;29;20084;-59
2022/10/31 11:18:32;;;;;;;18.08;12.25;;;14.70;99.90;;;;;;4925251;29;20055;-58
2022/10/31 11:21:03;;;;;;;18.23;12.63;;;14.70;99.90;;;;;;4924439;29;20036;-59
2022/10/31 11:23:29;;;;;;;18.83;11.90;;;14.60;99.90;;;;;;4923922;29;20128;-59
2022/10/31 11:26:18;;;;;;;17.38;13.32;;;14.70;99.90;;;;;;4924924;29;20048;-59
2022/10/31 11:28:43;;;;;;;20.80;12.95;;;14.80;99.90;;;;;;4924087;29;20130;-59
2022/10/31 11:31:13;;;;;;;16.42;10.80;;;14.80;99.90;;;;;;4924980;29;20044;-59
2022/10/31 11:33:51;;;;;;;16.75;11.98;;;14.70;99.90;;;;;;4907146;29;20044;-59
2022/10/31 11:36:25;;;;;;;18.45;11.40;;;14.70;99.90;;;;;;4925042;29;20048;-59
2022/10/31 11:38:52;;;;;;;19.35;10.23;;;14.40;99.90;;;;;;4924719;29;20056;-60
2022/10/31 11:41:28;;;;;;;17.85;11.65;;;14.50;99.90;;;;;;4915238;29;20040;-59
2022/10/31 11:44:03;;;;;;;18.80;11.55;;;14.30;99.90;;;;;;4914152;29;20056;-59
2022/10/31 11:46:42;;;;;;;22.65;13.90;;;14.20;99.90;;;;;;4916986;29;20075;-59
2022/10/31 11:49:20;;;;;;;21.17;12.23;;;14.20;99.90;;;;;;4913610;29;20037;-59
2022/10/31 11:51:53;;;;;;;22.08;11.50;;;14.10;99.90;;;;;;4895691;29;20531;-59
2022/10/31 11:54:26;;;;;;;20.00;12.10;;;14.10;99.90;;;;;;4912366;29;20059;-60
2022/10/31 11:56:52;;;;;;;18.90;11.82;;;14.10;99.90;;;;;;4913957;29;20104;-60
2022/10/31 11:59:39;;;;;;;19.05;12.55;;;14.20;99.90;;;;;;4894301;29;20083;-60
2022/10/31 12:02:18;;;;;;;19.27;12.23;;;14.20;99.90;;;;;;4912759;29;20614;-61
2022/10/31 12:04:50;;;;;;;16.05;11.90;;;14.30;99.90;;;;;;4905193;29;20059;-60
2022/10/31 12:07:16;;;;;;;;;;;14.20;99.90;;;;;;4903735;29;20588;-60
2022/10/31 12:09:41;;;;;;;19.45;12.75;;;14.40;99.90;;;;;;4905756;29;19923;-60
2022/10/31 12:12:15;;;;;;;20.42;13.10;;;14.50;99.90;;;;;;4904486;29;20045;-61
2022/10/31 12:15:10;;;;;;;16.95;11.65;;;14.50;99.90;;;;;;4888503;29;20633;-60
2022/10/31 12:18:11;;;;;;;16.25;10.65;;;14.50;99.90;;;;;;4905170;29;20131;-60
2022/10/31 12:20:45;;;;;;;14.10;9.68;;;14.50;99.90;;;;;;4890752;29;20052;-61
2022/10/31 12:23:28;;;;;;;15.88;9.77;;;14.60;99.90;;;;;;4905459;29;20052;-61
2022/10/31 12:26:27;;;;;;;18.45;10.35;;;14.50;99.90;;;;;;4904832;29;20072;-60
2022/10/31 12:29:29;;;;;;;14.68;9.27;;;14.60;99.90;;;;;;4904147;29;20262;-60
2022/10/31 12:32:14;;;;;;;13.73;9.00;;;14.60;99.90;;;;;;4905573;29;20099;-60
2022/10/31 12:34:52;;;;;;;12.88;7.65;;;14.70;99.90;;;;;;4904399;29;20048;-60
2022/10/31 12:37:35;;;;;;;14.77;7.78;;;14.70;99.90;;;;;;4904216;29;20052;-62
2022/10/31 12:40:35;;;;;;;14.07;7.30;;;14.70;99.90;;;;;;4905389;29;20067;-61
2022/10/31 12:43:04;;;;;;;14.48;8.00;;;14.70;99.90;;;;;;4887206;29;20505;-61
2022/10/31 12:45:54;;;;;;;14.80;7.95;;;14.60;99.90;;;;;;4904110;29;20068;-61
2022/10/31 12:48:25;;;;;;;12.63;6.68;;;14.70;99.90;;;;;;4905022;29;20060;-61
2022/10/31 12:51:09;;;;;;;12.25;6.20;;;14.70;99.90;;;;;;4904069;29;20056;-60
2022/10/31 12:54:10;;;;;;;10.00;5.82;;;14.70;99.90;;;;;;4903969;29;20137;-61